Time;durP1;ratioP1;P1;durP2;ratioP2;P2;SDS_P1;SDS_P2;PMS_P1;PMS_P2;Temp;Humidity;BMP_temperature;BMP_pressure;BME280_temperature;BME280_humidity;BME280_pressure;Samples;Min_cycle;Max_cycle;Signal;HPM_P1;HPM_P2
2023/05/16 00:00:20;;;;;;;18.20;7.47;;;;;;;17.51;57.87;98341.25;5094627;28;20107;-46
2023/05/16 00:02:46;;;;;;;14.02;7.65;;;;;;;17.47;57.69;98336.72;5093295;28;20024;-47
2023/05/16 00:05:15;;;;;;;10.90;6.70;;;;;;;17.46;57.56;98343.06;5094506;28;20129;-47
2023/05/16 00:07:46;;;;;;;19.80;6.85;;;;;;;17.45;57.76;98338.81;5093255;28;20039;-47
2023/05/16 00:10:12;;;;;;;18.10;6.90;;;;;;;17.45;57.58;98342.25;5093172;28;20076;-47
2023/05/16 00:12:39;;;;;;;19.02;7.45;;;;;;;17.47;57.78;98331.41;5094488;28;20024;-47
2023/05/16 00:15:07;;;;;;;15.07;7.53;;;;;;;17.48;57.45;98340.94;5093039;28;20031;-47
2023/05/16 00:17:34;;;;;;;17.70;7.68;;;;;;;17.44;57.49;98342.50;5094378;28;20035;-47
2023/05/16 00:20:09;;;;;;;17.77;7.18;;;;;;;17.42;57.50;98334.00;5094305;28;20016;-47
2023/05/16 00:22:40;;;;;;;13.93;7.43;;;;;;;17.30;57.65;98340.25;5094173;28;20024;-47
2023/05/16 00:25:07;;;;;;;15.50;7.80;;;;;;;17.12;58.03;98332.69;5094109;28;20031;-47
2023/05/16 00:27:33;;;;;;;19.65;8.32;;;;;;;16.96;58.27;98324.59;5092875;28;20024;-47
2023/05/16 00:30:00;;;;;;;16.90;7.85;;;;;;;16.84;58.87;98326.59;5092759;28;20518;-47
2023/05/16 00:32:26;;;;;;;13.75;7.40;;;;;;;16.75;59.09;98325.41;5092756;28;20498;-47
2023/05/16 00:34:51;;;;;;;17.50;8.20;;;;;;;16.65;59.30;98322.66;5094009;28;20020;-47
2023/05/16 00:37:17;;;;;;;17.85;8.60;;;;;;;16.55;59.82;98326.00;5093969;28;20024;-47
2023/05/16 00:39:43;;;;;;;11.70;7.30;;;;;;;16.63;59.84;98322.91;5092638;28;20043;-47
2023/05/16 00:42:08;;;;;;;16.83;8.85;;;;;;;16.73;59.91;98332.81;5093678;28;20459;-47
2023/05/16 00:44:34;;;;;;;14.80;8.85;;;;;;;16.88;59.51;98325.06;5092444;28;20027;-47
2023/05/16 00:47:01;;;;;;;12.57;7.63;;;;;;;16.86;59.71;98326.34;5092461;28;20020;-47
2023/05/16 00:49:28;;;;;;;16.83;9.00;;;;;;;16.97;59.65;98317.44;5092423;28;20031;-47
2023/05/16 00:51:55;;;;;;;14.52;10.15;;;;;;;17.03;59.23;98327.03;5093542;28;20028;-47
2023/05/16 00:54:22;;;;;;;12.68;9.55;;;;;;;17.04;59.18;98314.59;5093691;28;20020;-47
2023/05/16 00:56:48;;;;;;;17.25;9.40;;;;;;;16.73;59.33;98324.88;5093335;28;20042;-47
2023/05/16 00:59:14;;;;;;;21.00;9.80;;;;;;;16.64;60.31;98318.38;5093545;28;20024;-47
2023/05/16 01:01:40;;;;;;;15.10;8.63;;;;;;;16.82;60.05;98319.94;5092167;28;20056;-47
2023/05/16 01:04:06;;;;;;;14.85;8.25;;;;;;;17.00;59.64;98313.47;5092051;28;20400;-47
2023/05/16 01:06:33;;;;;;;17.35;9.07;;;;;;;17.13;58.97;98321.03;5093295;28;20031;-47
2023/05/16 01:08:59;;;;;;;19.83;9.32;;;;;;;17.24;58.84;98317.41;5093602;28;20366;-47
2023/05/16 01:11:39;;;;;;;15.82;9.52;;;;;;;17.58;57.96;98322.44;5093285;28;20027;-47
2023/05/16 01:14:24;;;;;;;13.13;8.38;;;;;;;17.54;57.49;98326.66;5093242;28;20016;-47
2023/05/16 01:17:04;;;;;;;17.05;8.95;;;;;;;17.34;57.85;98314.03;5092235;28;20031;-47
2023/05/16 01:19:47;;;;;;;19.77;9.68;;;;;;;17.32;58.24;98313.50;5091912;28;20028;-47
2023/05/16 01:22:30;;;;;;;13.48;10.07;;;;;;;17.21;58.11;98323.22;5091768;28;20085;-47
2023/05/16 01:25:27;;;;;;;23.65;10.05;;;;;;;17.31;58.52;98315.34;5091681;28;20038;-47
2023/05/16 01:27:55;;;;;;;22.23;11.27;;;;;;;17.49;57.93;98318.69;5092978;28;20028;-47
2023/05/16 01:30:21;;;;;;;23.90;12.10;;;;;;;17.40;57.50;98320.97;5091616;28;20119;-47
2023/05/16 01:32:46;;;;;;;62.72;39.50;;;;;;;17.29;58.42;98314.00;5091596;28;20603;-47
2023/05/16 01:35:15;;;;;;;21.45;14.98;;;;;;;17.42;58.30;98318.88;5091456;28;20024;-47
2023/05/16 01:37:58;;;;;;;19.80;9.90;;;;;;;17.40;57.70;98322.84;5092710;28;20085;-47
2023/05/16 01:40:56;;;;;;;11.38;10.02;;;;;;;17.35;58.02;98313.00;5091332;28;20059;-47
2023/05/16 01:43:33;;;;;;;13.88;10.00;;;;;;;17.33;58.07;98326.50;5080599;28;20509;-47
2023/05/16 01:46:09;;;;;;;24.88;11.98;;;;;;;17.47;58.28;98307.53;5091374;28;20024;-48
2023/05/16 01:48:43;;;;;;;18.67;10.75;;;;;;;17.70;57.18;98309.00;5091363;28;20024;-47
2023/05/16 01:51:10;;;;;;;28.27;11.00;;;;;;;17.67;56.93;98309.53;5091264;28;20047;-47
2023/05/16 01:53:38;;;;;;;15.18;9.18;;;;;;;17.72;57.03;98312.97;5092578;28;20023;-47
2023/05/16 01:56:08;;;;;;;12.00;8.68;;;;;;;17.79;56.50;98315.44;5092378;28;20051;-47
2023/05/16 01:58:35;;;;;;;17.30;10.25;;;;;;;17.88;56.63;98310.47;5091158;28;20443;-47
2023/05/16 02:01:03;;;;;;;23.08;11.25;;;;;;;17.96;55.93;98317.94;5091079;28;20024;-47
2023/05/16 02:03:32;;;;;;;13.82;10.13;;;;;;;17.87;55.83;98308.88;5091036;28;20058;-47
2023/05/16 02:05:58;;;;;;;19.02;12.40;;;;;;;17.90;56.12;98313.66;5091026;28;20570;-46
2023/05/16 02:08:25;;;;;;;15.98;10.82;;;;;;;17.81;55.93;98312.50;5090451;28;20031;-47
2023/05/16 02:10:52;;;;;;;14.65;10.18;;;;;;;17.84;56.27;98320.00;5092224;28;20027;-47
2023/05/16 02:13:18;;;;;;;12.45;10.30;;;;;;;17.90;55.80;98316.31;5090913;28;20019;-47
2023/05/16 02:15:44;;;;;;;21.33;12.43;;;;;;;17.74;56.05;98315.38;5092145;28;20077;-47
2023/05/16 02:18:10;;;;;;;22.27;11.63;;;;;;;17.54;56.42;98319.50;5092157;28;20069;-47
2023/05/16 02:20:36;;;;;;;17.85;12.95;;;;;;;17.57;56.87;98315.56;5092043;28;20023;-47
2023/05/16 02:23:02;;;;;;;26.65;12.70;;;;;;;17.26;56.85;98317.16;5092032;28;20023;-47
2023/05/16 02:25:28;;;;;;;26.48;12.25;;;;;;;17.21;57.70;98320.56;5092004;28;20374;-47
2023/05/16 02:27:54;;;;;;;24.30;13.32;;;;;;;17.25;57.79;98313.72;5091996;28;20525;-47
2023/05/16 02:30:19;;;;;;;27.85;12.70;;;;;;;17.36;57.66;98328.66;5090694;28;20027;-47
2023/05/16 02:32:45;;;;;;;23.10;12.43;;;;;;;17.41;57.26;98314.63;5090718;28;20024;-46
2023/05/16 02:35:12;;;;;;;25.40;12.20;;;;;;;17.35;57.34;98320.97;5090583;28;20456;-47
2023/05/16 02:37:37;;;;;;;27.80;12.38;;;;;;;17.24;57.47;98311.31;5091955;28;20020;-47
2023/05/16 02:40:06;;;;;;;22.98;12.05;;;;;;;17.42;57.58;98315.44;5091437;28;20077;-48
2023/05/16 02:42:32;;;;;;;14.38;11.27;;;;;;;17.68;56.85;98319.06;5090622;28;20040;-47
2023/05/16 02:44:58;;;;;;;24.13;12.35;;;;;;;17.59;56.26;98308.13;5090482;28;20532;-47
2023/05/16 02:47:24;;;;;;;16.73;11.65;;;;;;;17.44;56.79;98310.66;5091881;28;20094;-47
2023/05/16 02:49:51;;;;;;;22.60;12.10;;;;;;;17.33;57.12;98310.59;5090514;28;20398;-47
2023/05/16 02:52:19;;;;;;;20.42;12.77;;;;;;;17.25;57.03;98299.66;5090409;28;20031;-47
2023/05/16 02:54:45;;;;;;;19.23;11.90;;;;;;;17.04;57.47;98301.31;5091753;28;20024;-47
2023/05/16 02:57:11;;;;;;;22.95;12.68;;;;;;;17.07;57.86;98298.19;5090436;28;20077;-47
2023/05/16 02:59:37;;;;;;;21.80;13.00;;;;;;;16.99;58.17;98298.66;5090418;28;20122;-46
2023/05/16 03:02:03;;;;;;;19.27;11.30;;;;;;;17.16;58.21;98292.16;5091629;28;20550;-47
2023/05/16 03:04:28;;;;;;;25.35;12.60;;;;;;;17.15;57.50;98300.38;5091689;28;20020;-47
2023/05/16 03:06:55;;;;;;;15.32;11.88;;;;;;;17.44;57.78;98292.09;5090355;28;20409;-47
2023/05/16 03:09:21;;;;;;;18.52;12.00;;;;;;;17.65;56.67;98288.53;5090326;28;20073;-47
2023/05/16 03:11:46;;;;;;;15.40;12.13;;;;;;;17.75;56.43;98288.59;5090310;28;20019;-47
2023/05/16 03:14:12;;;;;;;22.20;12.65;;;;;;;17.71;55.95;98295.47;5091615;28;20477;-47
2023/05/16 03:16:40;;;;;;;17.13;11.02;;;;;;;17.48;56.58;98301.16;5091550;28;20442;-47
2023/05/16 03:19:06;;;;;;;16.52;12.07;;;;;;;17.43;56.58;98301.91;5091628;28;20024;-46
2023/05/16 03:21:31;;;;;;;18.25;10.75;;;;;;;17.35;57.04;98299.75;5095368;28;20504;-47
2023/05/16 03:23:57;;;;;;;18.38;12.13;;;;;;;17.56;56.91;98295.38;5095583;28;20024;-47
2023/05/16 03:26:24;;;;;;;19.08;12.80;;;;;;;17.70;56.43;98299.16;5095591;28;20082;-47
2023/05/16 03:28:50;;;;;;;25.48;13.35;;;;;;;17.57;56.21;98302.28;5095233;28;20150;-46
2023/05/16 03:31:16;;;;;;;25.42;13.32;;;;;;;17.34;56.66;98303.44;5093950;28;20443;-47
2023/05/16 03:33:42;;;;;;;24.42;13.30;;;;;;;17.24;57.13;98296.19;5095612;28;20042;-47
2023/05/16 03:36:09;;;;;;;30.70;14.73;;;;;;;17.23;57.31;98315.03;5095256;28;20485;-47
2023/05/16 03:38:35;;;;;;;17.48;12.98;;;;;;;17.13;57.52;98303.28;5077031;28;20116;-46
2023/05/16 03:41:01;;;;;;;20.48;13.10;;;;;;;17.06;57.79;98312.47;5093645;28;20040;-47
2023/05/16 03:43:27;;;;;;;18.23;13.45;;;;;;;17.03;58.10;98307.69;5095257;28;20563;-47
2023/05/16 03:45:53;;;;;;;15.40;13.65;;;;;;;17.03;58.14;98311.13;5093693;28;20024;-47
2023/05/16 03:48:18;;;;;;;16.15;12.57;;;;;;;17.00;58.13;98308.97;5095032;28;20397;-47
2023/05/16 03:50:44;;;;;;;29.02;14.50;;;;;;;17.11;58.26;98317.84;5093499;28;20020;-46
2023/05/16 03:53:10;;;;;;;17.40;14.10;;;;;;;16.99;57.73;98318.00;5093581;28;20032;-47
2023/05/16 03:55:36;;;;;;;18.05;14.40;;;;;;;16.83;58.72;98321.56;5094781;28;20035;-47
2023/05/16 03:58:02;;;;;;;19.20;13.90;;;;;;;16.77;58.92;98313.50;5094763;28;20024;-47
2023/05/16 04:00:28;;;;;;;22.00;14.30;;;;;;;16.81;58.99;98316.50;5093448;28;20106;-47
2023/05/16 04:02:54;;;;;;;19.52;13.35;;;;;;;16.83;59.25;98310.94;5094806;28;20020;-47
2023/05/16 04:05:20;;;;;;;18.88;13.70;;;;;;;16.84;59.20;98318.66;5093345;28;20024;-47
2023/05/16 04:07:45;;;;;;;22.60;14.40;;;;;;;16.88;59.13;98321.59;5094594;28;20016;-46
2023/05/16 04:10:11;;;;;;;30.58;15.52;;;;;;;16.88;59.22;98316.28;5094555;28;20028;-47
2023/05/16 04:12:37;;;;;;;22.52;14.68;;;;;;;16.72;59.40;98321.41;5093208;28;20107;-47
2023/05/16 04:15:04;;;;;;;32.03;24.20;;;;;;;16.68;60.01;98315.00;5094417;28;20031;-47
2023/05/16 04:17:30;;;;;;;20.45;14.63;;;;;;;16.83;59.81;98317.03;5093091;28;20553;-46
2023/05/16 04:19:56;;;;;;;20.77;14.57;;;;;;;16.91;59.60;98313.94;5094314;28;20027;-47
2023/05/16 04:22:21;;;;;;;17.50;13.70;;;;;;;16.99;59.15;98320.66;5094297;28;20063;-47
2023/05/16 04:24:48;;;;;;;20.65;15.73;;;;;;;16.89;59.02;98310.75;5092826;28;20068;-47
2023/05/16 04:27:14;;;;;;;18.45;14.07;;;;;;;16.72;59.45;98317.94;5092844;28;20024;-47
2023/05/16 04:29:39;;;;;;;29.00;14.10;;;;;;;16.62;59.86;98315.19;5094099;28;20035;-46
2023/05/16 04:32:09;;;;;;;20.25;14.40;;;;;;;16.60;60.01;98317.28;5092205;28;20028;-46
2023/05/16 04:34:36;;;;;;;17.30;13.95;;;;;;;16.60;60.31;98318.13;5094347;28;20047;-46
2023/05/16 04:37:06;;;;;;;19.40;13.20;;;;;;;16.64;60.23;98313.91;5093932;28;20497;-46
2023/05/16 04:39:35;;;;;;;24.75;15.32;;;;;;;16.56;60.08;98317.00;5092695;28;20135;-46
2023/05/16 04:42:02;;;;;;;28.85;13.75;;;;;;;16.50;60.49;98317.97;5093717;28;20127;-47
2023/05/16 04:44:27;;;;;;;19.30;13.65;;;;;;;16.48;60.21;98310.28;5093759;28;20031;-47
2023/05/16 04:46:54;;;;;;;25.48;14.57;;;;;;;16.44;60.25;98309.19;5094027;28;20028;-47
2023/05/16 04:49:21;;;;;;;24.17;14.93;;;;;;;16.31;60.27;98313.00;5092791;28;20070;-47
2023/05/16 04:51:48;;;;;;;29.98;15.63;;;;;;;16.20;60.65;98310.47;5093702;28;20032;-47
2023/05/16 04:54:14;;;;;;;23.52;15.02;;;;;;;16.16;60.94;98310.19;5092366;28;20024;-46
2023/05/16 04:56:40;;;;;;;20.48;13.77;;;;;;;16.27;60.91;98305.81;5075493;28;20119;-47
2023/05/16 04:59:05;;;;;;;22.73;16.88;;;;;;;16.38;60.62;98312.81;5092297;28;20085;-47
2023/05/16 05:01:31;;;;;;;24.13;13.50;;;;;;;16.47;60.36;98313.97;5092205;28;20028;-46
2023/05/16 05:04:00;;;;;;;20.25;13.93;;;;;;;16.49;60.22;98295.19;5093431;28;20402;-46
2023/05/16 05:06:28;;;;;;;23.92;14.50;;;;;;;16.49;59.62;98296.00;5093469;28;20070;-46
2023/05/16 05:08:54;;;;;;;28.90;13.23;;;;;;;16.30;60.06;98303.47;5093347;28;20107;-46
2023/05/16 05:11:20;;;;;;;32.85;15.05;;;;;;;16.17;60.39;98306.47;5093329;28;20032;-46
2023/05/16 05:13:46;;;;;;;26.77;15.25;;;;;;;16.11;60.40;98305.59;5093192;28;20035;-47
2023/05/16 05:16:12;;;;;;;28.35;15.93;;;;;;;16.13;60.78;98310.66;5092000;28;20038;-47
2023/05/16 05:18:38;;;;;;;21.73;14.10;;;;;;;16.15;60.41;98316.50;5093393;28;20046;-46
2023/05/16 05:21:03;;;;;;;30.77;15.43;;;;;;;16.03;60.37;98311.31;5093116;28;20545;-46
2023/05/16 05:23:29;;;;;;;33.00;15.45;;;;;;;16.04;60.87;98317.44;5091735;28;20028;-46
2023/05/16 05:25:58;;;;;;;38.70;14.18;;;;;;;16.12;60.21;98309.06;5091732;28;20106;-46
2023/05/16 05:28:24;;;;;;;31.30;15.80;;;;;;;16.00;60.42;98327.69;5093016;28;20028;-46
2023/05/16 05:30:50;;;;;;;33.78;15.35;;;;;;;15.88;60.67;98321.72;5092893;28;20028;-46
2023/05/16 05:33:19;;;;;;;24.75;14.82;;;;;;;15.90;61.06;98322.28;5093199;28;20035;-47
2023/05/16 05:35:45;;;;;;;26.48;13.68;;;;;;;16.02;60.96;98322.16;5091701;28;20496;-47
2023/05/16 05:38:10;;;;;;;22.98;14.88;;;;;;;16.09;60.62;98307.69;5093065;28;20102;-46
2023/05/16 05:40:36;;;;;;;23.63;14.65;;;;;;;16.01;60.44;98324.00;5091283;28;20417;-47
2023/05/16 05:43:02;;;;;;;28.88;14.85;;;;;;;16.06;60.55;98318.00;5090487;28;20032;-46
2023/05/16 05:45:28;;;;;;;28.58;15.40;;;;;;;16.08;60.39;98314.03;5074419;28;20115;-46
2023/05/16 05:47:53;;;;;;;79.60;45.28;;;;;;;16.07;60.24;98320.38;5091342;28;20028;-46
2023/05/16 05:50:19;;;;;;;36.00;16.00;;;;;;;16.08;60.14;98327.28;5092554;28;20035;-46
2023/05/16 05:52:45;;;;;;;25.50;13.82;;;;;;;16.03;60.48;98313.19;5091300;28;20016;-46
2023/05/16 05:55:11;;;;;;;29.33;14.25;;;;;;;16.04;60.42;98315.59;5092522;28;20028;-46
2023/05/16 05:57:36;;;;;;;33.78;13.98;;;;;;;16.12;60.28;98298.47;5091168;28;20021;-46
2023/05/16 06:00:03;;;;;;;37.75;13.82;;;;;;;16.20;60.01;98306.00;5091371;28;20020;-46
2023/05/16 06:02:29;;;;;;;22.58;12.20;;;;;;;16.18;59.98;98316.81;5092381;28;20031;-46
2023/05/16 06:04:55;;;;;;;20.70;13.75;;;;;;;16.16;59.64;98310.19;5092257;28;20031;-46
2023/05/16 06:07:20;;;;;;;23.00;13.48;;;;;;;16.20;60.06;98321.06;5092313;28;20055;-46
2023/05/16 06:09:46;;;;;;;19.13;12.30;;;;;;;16.31;59.49;98322.78;5090979;28;20028;-46
2023/05/16 06:12:12;;;;;;;27.73;14.13;;;;;;;16.37;59.43;98324.44;5092161;28;20073;-46
2023/05/16 06:14:38;;;;;;;26.50;13.98;;;;;;;16.41;58.76;98333.50;5090858;28;20068;-46
2023/05/16 06:17:04;;;;;;;21.85;13.63;;;;;;;16.41;58.71;98336.16;5092253;28;20032;-46
2023/05/16 06:19:29;;;;;;;33.25;14.55;;;;;;;16.33;59.16;98341.88;5092216;28;20555;-46
2023/05/16 06:21:55;;;;;;;20.15;13.93;;;;;;;16.32;59.31;98340.31;5092145;28;20146;-46
2023/05/16 06:24:21;;;;;;;20.10;13.80;;;;;;;16.41;59.20;98345.97;5090761;28;20020;-46
2023/05/16 06:26:48;;;;;;;23.00;13.88;;;;;;;16.38;58.88;98356.00;5090795;28;20414;-46
2023/05/16 06:29:15;;;;;;;21.40;13.30;;;;;;;16.25;59.23;98343.09;5090735;28;20077;-46
2023/05/16 06:31:41;;;;;;;28.27;14.65;;;;;;;16.22;59.29;98348.09;5090718;28;20028;-46
2023/05/16 06:34:07;;;;;;;22.67;13.52;;;;;;;16.40;59.06;98345.16;5091996;28;20027;-46
2023/05/16 06:36:33;;;;;;;29.30;13.13;;;;;;;16.48;58.54;98354.50;5091993;28;20023;-46
2023/05/16 06:38:58;;;;;;;19.58;13.70;;;;;;;16.53;58.93;98351.94;5091934;28;20093;-46
2023/05/16 06:41:25;;;;;;;26.38;14.23;;;;;;;16.55;58.56;98347.97;5090341;28;20524;-47
2023/05/16 06:43:51;;;;;;;22.15;14.00;;;;;;;16.53;58.62;98344.78;5092030;28;20099;-47
2023/05/16 06:46:17;;;;;;;29.65;14.38;;;;;;;16.56;58.30;98352.25;5091777;28;20099;-46
2023/05/16 06:48:42;;;;;;;26.63;14.32;;;;;;;16.49;58.49;98345.53;5090513;28;20024;-46
2023/05/16 06:51:09;;;;;;;30.20;13.38;;;;;;;16.52;58.13;98331.78;5090407;28;20023;-46
2023/05/16 06:53:35;;;;;;;38.55;14.45;;;;;;;16.44;58.10;98335.69;5091399;28;20543;-46
2023/05/16 06:56:01;;;;;;;24.75;13.35;;;;;;;16.31;58.24;98349.28;5094975;28;20028;-46
2023/05/16 06:58:27;;;;;;;27.42;13.57;;;;;;;16.13;58.88;98340.56;5094582;28;20463;-46
2023/05/16 07:00:52;;;;;;;21.23;12.30;;;;;;;16.07;58.63;98346.84;5095800;28;20107;-46
2023/05/16 07:03:18;;;;;;;17.40;12.27;;;;;;;15.90;59.33;98349.53;5095751;28;20044;-46
2023/05/16 07:05:44;;;;;;;24.42;13.05;;;;;;;15.97;59.82;98357.28;5095761;28;20508;-46
2023/05/16 07:08:11;;;;;;;31.75;12.68;;;;;;;16.06;59.24;98349.75;5095995;28;20024;-47
2023/05/16 07:10:37;;;;;;;25.30;12.18;;;;;;;16.13;59.41;98360.97;5094384;28;20020;-47
2023/05/16 07:13:03;;;;;;;20.88;12.80;;;;;;;16.23;58.99;98365.59;5094321;28;20511;-47
2023/05/16 07:15:29;;;;;;;22.55;11.82;;;;;;;16.27;58.73;98361.41;5095868;28;20024;-46
2023/05/16 07:17:56;;;;;;;24.77;12.02;;;;;;;16.29;58.31;98377.84;5094432;28;20394;-46
2023/05/16 07:20:22;;;;;;;23.10;12.80;;;;;;;16.23;58.40;98366.38;5094187;28;20059;-46
2023/05/16 07:22:48;;;;;;;22.23;11.75;;;;;;;16.24;58.52;98356.59;5095469;28;20501;-46
2023/05/16 07:25:14;;;;;;;23.27;12.50;;;;;;;16.26;57.96;98359.78;5094206;28;20116;-46
2023/05/16 07:27:43;;;;;;;18.38;11.70;;;;;;;16.15;58.48;98370.25;5095288;28;20665;-47
2023/05/16 07:30:10;;;;;;;24.40;12.07;;;;;;;16.22;58.28;98369.28;5095257;28;20039;-46
2023/05/16 07:32:36;;;;;;;32.67;10.65;;;;;;;16.20;58.50;98347.53;5093949;28;20032;-46
2023/05/16 07:35:03;;;;;;;66.82;14.82;;;;;;;16.11;58.80;98363.03;5095420;28;20388;-46
2023/05/16 07:37:29;;;;;;;43.28;12.45;;;;;;;15.96;59.06;98369.72;5095168;28;20035;-46
2023/05/16 07:39:55;;;;;;;33.55;11.60;;;;;;;16.00;59.55;98361.28;5095422;28;20374;-46
2023/05/16 07:42:20;;;;;;;19.67;9.68;;;;;;;16.14;59.24;98359.94;5094908;28;20059;-46
2023/05/16 07:44:46;;;;;;;19.77;10.02;;;;;;;16.14;59.30;98370.50;5094966;28;20073;-46
2023/05/16 07:47:12;;;;;;;23.27;11.07;;;;;;;16.14;59.28;98370.50;5095297;28;20031;-46
2023/05/16 07:49:38;;;;;;;25.85;10.88;;;;;;;16.08;59.58;98371.50;5094950;28;20482;-46
2023/05/16 07:52:04;;;;;;;21.45;11.30;;;;;;;16.08;59.82;98369.63;5094860;28;20039;-46
2023/05/16 07:54:32;;;;;;;16.27;9.00;;;;;;;16.10;59.97;98378.13;5093525;28;20101;-46
2023/05/16 07:56:58;;;;;;;16.05;8.40;;;;;;;16.04;59.96;98378.31;5093837;28;20043;-46
2023/05/16 07:59:24;;;;;;;20.98;8.30;;;;;;;15.94;60.54;98373.69;5094839;28;20038;-46
2023/05/16 08:01:50;;;;;;;26.48;8.98;;;;;;;15.92;60.95;98379.19;5094657;28;20024;-46
2023/05/16 08:04:15;;;;;;;27.45;9.27;;;;;;;15.98;60.90;98393.31;5093283;28;20038;-46
2023/05/16 08:06:41;;;;;;;21.05;9.38;;;;;;;15.96;61.37;98390.13;5092259;28;20016;-46
2023/05/16 08:09:08;;;;;;;20.23;10.38;;;;;;;15.93;61.42;98383.44;5094614;28;20024;-46
2023/05/16 08:11:34;;;;;;;19.70;8.73;;;;;;;15.84;61.82;98378.81;5094399;28;20524;-46
2023/05/16 08:14:00;;;;;;;18.27;8.50;;;;;;;15.82;62.43;98372.97;5093546;28;20024;-46
2023/05/16 08:16:25;;;;;;;18.15;7.38;;;;;;;15.75;62.09;98379.22;5094441;28;20485;-46
2023/05/16 08:18:52;;;;;;;29.42;8.35;;;;;;;15.76;62.43;98367.59;5094350;28;20059;-46
2023/05/16 08:21:20;;;;;;;35.70;27.52;;;;;;;15.84;62.24;98373.53;5076244;28;20425;-46
2023/05/16 08:23:46;;;;;;;12.50;9.00;;;;;;;15.93;61.90;98380.00;5092977;28;20028;-47
2023/05/16 08:26:12;;;;;;;13.98;9.30;;;;;;;15.89;61.40;98376.22;5094270;28;20055;-46
2023/05/16 08:28:37;;;;;;;15.02;8.27;;;;;;;15.81;61.91;98385.38;5093064;28;20035;-46
2023/05/16 08:31:03;;;;;;;14.93;9.77;;;;;;;15.66;61.48;98378.00;5093096;28;20038;-47
2023/05/16 08:33:29;;;;;;;21.80;8.13;;;;;;;15.53;62.60;98380.94;5093997;28;20379;-47
2023/05/16 08:35:54;;;;;;;12.18;9.25;;;;;;;15.66;62.16;98393.06;5076299;28;20031;-47
2023/05/16 08:38:20;;;;;;;22.25;8.77;;;;;;;15.80;61.50;98398.88;5094057;28;20032;-49
2023/05/16 08:40:46;;;;;;;18.05;8.65;;;;;;;16.12;60.33;98383.19;5093946;28;20066;-50
2023/05/16 08:43:15;;;;;;;15.93;8.60;;;;;;;16.43;59.16;98392.34;5093886;28;20028;-49
2023/05/16 08:45:41;;;;;;;15.25;8.77;;;;;;;16.62;57.85;98382.25;5092436;28;20028;-49
2023/05/16 08:48:09;;;;;;;20.35;7.82;;;;;;;16.67;57.58;98398.19;5092541;28;20123;-49
2023/05/16 08:50:35;;;;;;;17.05;8.75;;;;;;;16.82;57.13;98399.44;5092506;28;20486;-50
2023/05/16 08:53:06;;;;;;;16.27;8.57;;;;;;;16.90;56.35;98394.53;5093611;28;20059;-47
2023/05/16 08:55:32;;;;;;;15.23;8.27;;;;;;;16.94;56.35;98387.69;5093681;28;20063;-47
2023/05/16 08:57:59;;;;;;;20.95;8.38;;;;;;;17.28;55.95;98392.75;5092326;28;20024;-47
2023/05/16 09:00:26;;;;;;;20.52;12.15;;;;;;;17.61;54.75;98385.63;5093551;28;20020;-47
2023/05/16 09:02:52;;;;;;;15.57;10.13;;;;;;;17.79;54.26;98389.75;5092166;28;20020;-47
2023/05/16 09:05:18;;;;;;;21.60;9.25;;;;;;;17.98;53.99;98397.34;5093517;28;20081;-47
2023/05/16 09:07:45;;;;;;;15.77;8.20;;;;;;;17.90;53.23;98382.69;5093426;28;20119;-47
2023/05/16 09:10:11;;;;;;;18.05;8.13;;;;;;;17.76;53.53;98396.34;5092071;28;20386;-47
2023/05/16 09:12:38;;;;;;;13.05;7.53;;;;;;;17.87;53.50;98381.34;5092308;28;20043;-47
2023/05/16 09:15:06;;;;;;;14.45;8.57;;;;;;;17.91;52.90;98390.41;5075147;28;20185;-47
2023/05/16 09:17:39;;;;;;;20.50;8.35;;;;;;;17.87;52.63;98381.34;5092122;28;20119;-47
2023/05/16 09:20:16;;;;;;;17.92;9.43;;;;;;;17.54;53.03;98395.66;5091884;28;20168;-47
2023/05/16 09:22:52;;;;;;;17.60;8.30;;;;;;;17.34;54.25;98390.97;5093180;28;20074;-47
2023/05/16 09:25:18;;;;;;;20.20;8.52;;;;;;;17.30;53.88;98387.22;5093053;28;20032;-47
2023/05/16 09:27:52;;;;;;;14.25;8.25;;;;;;;17.15;54.20;98386.03;5091836;28;20055;-47
2023/05/16 09:30:22;;;;;;;23.38;8.35;;;;;;;17.01;54.69;98398.06;5091994;28;20035;-47
2023/05/16 09:32:51;;;;;;;26.08;9.68;;;;;;;16.90;55.16;98399.00;5091686;28;20561;-47
2023/05/16 09:35:18;;;;;;;17.38;9.07;;;;;;;16.66;55.54;98398.44;5092885;28;20025;-47
2023/05/16 09:37:47;;;;;;;20.67;8.73;;;;;;;16.45;56.22;98416.72;5091549;28;20065;-47
2023/05/16 09:40:14;;;;;;;19.55;8.55;;;;;;;16.36;56.86;98410.25;5091543;28;20051;-48
2023/05/16 09:42:40;;;;;;;14.88;8.63;;;;;;;16.28;56.91;98411.47;5091783;28;20028;-47
2023/05/16 09:45:10;;;;;;;23.95;9.18;;;;;;;16.18;57.48;98406.84;5074519;28;20393;-47
2023/05/16 09:47:44;;;;;;;14.85;8.40;;;;;;;16.27;57.53;98409.06;5092715;28;20027;-47
2023/05/16 09:50:11;;;;;;;27.20;9.60;;;;;;;16.21;57.53;98416.13;5092640;28;20028;-47
2023/05/16 09:52:37;;;;;;;17.58;9.00;;;;;;;16.21;57.85;98404.75;5092501;28;20557;-47
2023/05/16 09:55:08;;;;;;;17.27;8.23;;;;;;;16.18;57.57;98403.41;5092537;28;20059;-47
2023/05/16 09:57:37;;;;;;;13.45;8.60;;;;;;;16.11;57.92;98405.41;5092508;28;20478;-46
2023/05/16 10:00:08;;;;;;;25.75;9.90;;;;;;;15.97;58.11;98402.28;5092385;28;20092;-46
2023/05/16 10:02:35;;;;;;;18.58;8.70;;;;;;;15.91;58.85;98403.25;5092480;28;20573;-47
2023/05/16 10:05:01;;;;;;;21.10;9.43;;;;;;;15.77;58.59;98400.94;5092245;28;20027;-46
2023/05/16 10:07:31;;;;;;;16.70;8.60;;;;;;;15.66;59.07;98383.28;5092585;28;20389;-46
2023/05/16 10:09:59;;;;;;;17.00;9.05;;;;;;;15.75;59.41;98396.94;5091351;28;20032;-46
2023/05/16 10:12:30;;;;;;;22.10;8.90;;;;;;;15.84;58.44;98395.50;5091253;28;20019;-46
2023/05/16 10:14:56;;;;;;;22.42;10.40;;;;;;;15.77;58.83;98392.19;5092281;28;20016;-46
2023/05/16 10:17:24;;;;;;;22.20;11.40;;;;;;;15.90;59.18;98399.81;5091132;28;20048;-47
2023/05/16 10:19:50;;;;;;;17.42;10.52;;;;;;;16.20;57.83;98393.38;5092419;28;20065;-47
2023/05/16 10:22:18;;;;;;;16.17;10.13;;;;;;;16.36;57.44;98383.78;5092148;28;20024;-47
2023/05/16 10:24:54;;;;;;;21.88;9.75;;;;;;;16.53;56.44;98368.63;5092277;28;20081;-46
2023/05/16 10:27:20;;;;;;;14.40;9.07;;;;;;;16.73;55.74;98372.56;5090722;28;20051;-46
2023/05/16 10:29:46;;;;;;;24.88;9.73;;;;;;;16.79;55.22;98382.16;5090213;28;20081;-48
2023/05/16 10:32:12;;;;;;;19.10;10.05;;;;;;;16.77;54.84;98357.75;5090710;28;20024;-46
2023/05/16 10:34:39;;;;;;;42.03;10.60;;;;;;;16.94;54.28;98366.47;5091996;28;20099;-46
2023/05/16 10:37:06;;;;;;;37.85;10.45;;;;;;;17.14;53.37;98368.53;5091969;28;20024;-46
2023/05/16 10:39:33;;;;;;;35.90;11.20;;;;;;;17.53;52.83;98384.25;5091857;28;20089;-47
2023/05/16 10:41:59;;;;;;;26.00;10.90;;;;;;;17.83;51.86;98380.25;5090431;28;20431;-46
2023/05/16 10:44:25;;;;;;;28.08;11.40;;;;;;;17.99;51.35;98375.84;5091720;28;20027;-46
2023/05/16 10:46:50;;;;;;;24.38;9.80;;;;;;;17.99;50.58;98359.91;5090459;28;20020;-47
2023/05/16 10:49:24;;;;;;;43.78;9.20;;;;;;;18.05;50.40;98369.50;5091783;28;20100;-47
2023/05/16 10:52:07;;;;;;;46.50;10.35;;;;;;;18.02;50.48;98375.31;5090417;28;20101;-46
2023/05/16 10:54:41;;;;;;;23.10;8.95;;;;;;;17.91;50.77;98369.16;5092017;28;20440;-47
2023/05/16 10:57:16;;;;;;;20.83;9.30;;;;;;;17.72;51.00;98376.69;5091672;28;20023;-46
2023/05/16 10:59:46;;;;;;;;;;;;;;;17.48;51.88;98365.63;5091156;28;20445;-46
2023/05/16 11:02:24;;;;;;;19.75;8.10;;;;;;;17.40;51.89;98373.25;5090515;28;19958;-46
2023/05/16 11:05:01;;;;;;;22.92;9.25;;;;;;;17.22;53.13;98391.13;5090458;28;20032;-46
2023/05/16 11:07:35;;;;;;;26.60;9.77;;;;;;;17.37;52.71;98387.81;5090686;28;20093;-46
2023/05/16 11:10:08;;;;;;;29.40;9.93;;;;;;;17.30;52.52;98369.44;5091740;28;20077;-46
2023/05/16 11:12:45;;;;;;;27.05;10.50;;;;;;;17.21;52.86;98356.91;5090240;28;20119;-46
2023/05/16 11:15:24;;;;;;;15.45;9.18;;;;;;;17.04;53.49;98389.59;5090265;28;20018;-47
2023/05/16 11:17:50;;;;;;;27.95;8.57;;;;;;;17.01;53.70;98376.06;5090574;28;20508;-46
2023/05/16 11:20:37;;;;;;;25.80;9.05;;;;;;;17.11;53.75;98370.88;5090511;28;20024;-47